Dades meteomassalio
Diari Summary for Febrer 3, 2017 Units:  English    Metric   Both
« Previous Day
Next Day »
Diari Semanal Mensual Anual Personalitzat
  Maxima: Minima: Mijana:
Temperatura: TemperatureC °F 2.1 °F 8.6 °F
Rosada: DewpointC °F 1.1 °F 5.4 °F
Humitat: Humidity % 49 % 81 %
Velocitat del vent: WindSpeedKMH mph 0.0 mph 3.5 mph
Racha vent: WindSpeedGustKMH mph - -
Vent:- - SW
Pressio: PressurehPa in 1013.4 in -
Pluja: 0.3 in    
Historical Graphs
 
 
Tabular Data for Febrer 3, 2017
Time Temperature Dew Point Pressure Wind Wind Speed Wind Gust Humidity Rainfall Rate (Hourly) solar Conditions
TemperatureC °F DewpointC °F PressurehPa in Calm     Humidity % HourlyPrecipMM in SolarRadiationWatts/m^2 W/m2 Conditions
00:02 7.5 °F 5.5 °F 1018.2 in WSW 5.6 mph 5.6 mph 87 % 0.0 in 0.0 W/m2 RA
00:07 7.5 °F 5.5 °F 1018.2 in WSW 3.7 mph 3.7 mph 87 % 0.0 in 0.0 W/m2 CLR
00:12 7.4 °F 5.3 °F 1018.2 in WSW 5.6 mph 5.6 mph 86 % 0.0 in 0.0 W/m2 CLR
00:17 7.3 °F 5.3 °F 1018.2 in Calm     87 % 0.0 in 0.0 W/m2 CLR
00:22 7.2 °F 5.2 °F 1018.2 in Calm     87 % 0.0 in 0.0 W/m2 CLR
00:27 6.8 °F 4.8 °F 1018.2 in Calm     87 % 0.0 in 0.0 W/m2 CLR
00:32 6.6 °F 4.7 °F 1018.2 in Calm     88 % 0.0 in 0.0 W/m2 CLR
00:37 6.6 °F 4.9 °F 1018.2 in Calm     89 % 0.0 in 0.0 W/m2 CLR
00:42 6.6 °F 4.9 °F 1018.2 in Calm     89 % 0.0 in 0.0 W/m2 CLR
00:47 6.6 °F 4.9 °F 1018.2 in Calm     89 % 0.0 in 0.0 W/m2 CLR
00:52 6.4 °F 4.8 °F 1018.2 in Calm     89 % 0.0 in 0.0 W/m2 CLR
00:57 6.3 °F 4.6 °F 1018.5 in Calm     89 % 0.0 in 0.0 W/m2 CLR
01:02 6.1 °F 4.4 °F 1018.5 in Calm     89 % 0.0 in 0.0 W/m2 CLR
01:07 5.9 °F 4.4 °F 1018.5 in Calm     90 % 0.0 in 0.0 W/m2 CLR
01:12 5.9 °F 4.4 °F 1018.5 in Calm     90 % 0.0 in 0.0 W/m2 CLR
01:17 5.5 °F 3.8 °F 1018.5 in Calm     89 % 0.0 in 0.0 W/m2 CLR
01:22 5.4 °F 4.1 °F 1018.5 in Calm     91 % 0.0 in 0.0 W/m2 CLR
01:27 5.3 °F 4.0 °F 1018.5 in Calm     91 % 0.0 in 0.0 W/m2 CLR
01:32 5.2 °F 3.9 °F 1018.5 in Calm     91 % 0.0 in 0.0 W/m2 CLR
01:37 5.2 °F 3.8 °F 1018.5 in Calm     91 % 0.0 in 0.0 W/m2 CLR
01:42 5.1 °F 3.9 °F 1018.5 in Calm     92 % 0.0 in 0.0 W/m2 CLR
01:47 5.0 °F 3.7 °F 1018.5 in Calm     91 % 0.0 in 0.0 W/m2 CLR
01:52 4.8 °F 3.5 °F 1018.5 in Calm     91 % 0.0 in 0.0 W/m2 CLR
01:57 4.6 °F 3.3 °F 1018.5 in Calm     91 % 0.0 in 0.0 W/m2 CLR
02:02 4.5 °F 3.3 °F 1018.5 in Calm     92 % 0.0 in 0.0 W/m2 CLR
02:07 4.4 °F 3.2 °F 1018.5 in Calm     92 % 0.0 in 0.0 W/m2 CLR
02:12 4.3 °F 3.1 °F 1018.5 in Calm     92 % 0.0 in 0.0 W/m2 CLR
02:17 4.3 °F 3.3 °F 1018.5 in Calm     93 % 0.0 in 0.0 W/m2 CLR
02:22 4.3 °F 3.3 °F 1018.5 in Calm     93 % 0.0 in 0.0 W/m2 CLR
02:27 4.1 °F 2.9 °F 1018.5 in Calm     92 % 0.0 in 0.0 W/m2 CLR
02:32 3.9 °F 2.8 °F 1018.2 in Calm     92 % 0.0 in 0.0 W/m2 CLR
02:37 3.8 °F 2.8 °F 1018.5 in Calm     93 % 0.0 in 0.0 W/m2 CLR
02:42 3.7 °F 2.7 °F 1018.5 in Calm     93 % 0.0 in 0.0 W/m2 CLR
02:47 3.7 °F 2.7 °F 1018.5 in SSW 5.6 mph   93 % 0.0 in 0.0 W/m2 CLR
02:52 3.7 °F 2.7 °F 1018.5 in Calm     93 % 0.0 in 0.0 W/m2 CLR
02:57 3.6 °F 2.6 °F 1018.5 in Calm     93 % 0.0 in 0.0 W/m2 CLR
03:02 3.5 °F 2.5 °F 1018.5 in Calm     93 % 0.0 in 0.0 W/m2 CLR
03:07 3.4 °F 2.4 °F 1018.8 in Calm     93 % 0.0 in 0.0 W/m2 CLR
03:12 3.4 °F 2.4 °F 1018.8 in Calm     93 % 0.0 in 0.0 W/m2 CLR
03:17 3.3 °F 2.3 °F 1018.5 in Calm     93 % 0.0 in 0.0 W/m2 CLR
03:22 3.3 °F 2.3 °F 1018.5 in Calm     93 % 0.0 in 0.0 W/m2 CLR
03:27 3.3 °F 2.3 °F 1018.5 in Calm     93 % 0.0 in 0.0 W/m2 CLR
03:31 3.4 °F 2.4 °F 1018.5 in Calm     93 % 0.0 in 0.0 W/m2 CLR
03:36 3.5 °F 2.5 °F 1018.5 in Calm     93 % 0.0 in 0.0 W/m2 CLR
03:41 3.6 °F 2.6 °F 1018.5 in Calm     93 % 0.0 in 0.0 W/m2 CLR
03:46 3.4 °F 2.4 °F 1018.2 in Calm     93 % 0.0 in 0.0 W/m2 CLR
03:51 3.4 °F 2.4 °F 1018.2 in Calm     93 % 0.0 in 0.0 W/m2 CLR
03:56 3.4 °F 2.4 °F 1018.5 in Calm     93 % 0.0 in 0.0 W/m2 CLR
04:01 3.4 °F 2.4 °F 1018.5 in Calm     93 % 0.0 in 0.0 W/m2 CLR
04:06 3.2 °F 2.2 °F 1018.5 in Calm     93 % 0.0 in 0.0 W/m2 CLR
04:11 2.9 °F 1.9 °F 1018.2 in Calm     93 % 0.0 in 0.0 W/m2 CLR
04:16 2.8 °F 1.8 °F 1018.2 in Calm     93 % 0.0 in 0.0 W/m2 CLR
04:21 2.8 °F 1.8 °F 1018.2 in Calm     93 % 0.0 in 0.0 W/m2 CLR
04:26 3.1 °F 2.2 °F 1017.8 in Calm     94 % 0.0 in 0.0 W/m2 CLR
04:31 3.2 °F 2.3 °F 1017.8 in Calm     94 % 0.0 in 0.0 W/m2 CLR
04:36 3.2 °F 2.2 °F 1018.2 in Calm     93 % 0.0 in 0.0 W/m2 CLR
04:41 3.1 °F 2.1 °F 1018.2 in Calm     93 % 0.0 in 0.0 W/m2 CLR
04:46 2.8 °F 1.8 °F 1017.8 in Calm     93 % 0.0 in 0.0 W/m2 CLR
04:51 2.6 °F 1.6 °F 1017.8 in Calm     93 % 0.0 in 0.0 W/m2 CLR
04:56 2.5 °F 1.5 °F 1017.8 in Calm     93 % 0.0 in 0.0 W/m2 CLR
05:01 2.4 °F 1.4 °F 1017.8 in Calm     93 % 0.0 in 0.0 W/m2 CLR
05:06 2.3 °F 1.3 °F 1017.8 in Calm     93 % 0.0 in 0.0 W/m2 CLR
05:11 2.4 °F 1.5 °F 1017.8 in Calm     94 % 0.0 in 0.0 W/m2 CLR
05:16 2.3 °F 1.4 °F 1017.8 in Calm     94 % 0.0 in 0.0 W/m2 CLR
05:21 2.2 °F 1.2 °F 1017.8 in Calm     93 % 0.0 in 0.0 W/m2 CLR
05:26 2.2 °F 1.2 °F 1017.8 in Calm     93 % 0.3 in 0.0 W/m2 RA
05:31 2.1 °F 1.1 °F 1018.2 in Calm     93 % 0.3 in 0.0 W/m2
05:36 2.1 °F 1.2 °F 1017.8 in Calm     94 % 0.3 in 0.0 W/m2 CLR
05:41 2.2 °F 1.3 °F 1017.8 in Calm     94 % 0.3 in 0.0 W/m2 CLR
05:46 2.3 °F 1.4 °F 1017.8 in Calm     94 % 0.3 in 0.0 W/m2 CLR
05:51 2.3 °F 1.4 °F 1017.8 in SW 3.7 mph 3.7 mph 94 % 0.3 in 0.0 W/m2 CLR
05:56 2.4 °F 1.5 °F 1017.8 in Calm     94 % 0.3 in 0.0 W/m2 CLR
06:01 2.4 °F 1.6 °F 1017.8 in Calm     94 % 0.3 in 0.0 W/m2 CLR
06:06 2.4 °F 1.6 °F 1017.5 in Calm     94 % 0.3 in 0.0 W/m2 CLR
06:11 2.5 °F 1.6 °F 1017.5 in Calm     94 % 0.3 in 0.0 W/m2 CLR
06:16 2.6 °F 1.7 °F 1017.5 in Calm     94 % 0.3 in 0.0 W/m2 CLR
06:21 2.5 °F 1.6 °F 1017.5 in Calm     94 % 0.3 in 0.0 W/m2 CLR
06:26 2.4 °F 1.6 °F 1017.2 in Calm     94 % 0.0 in 0.0 W/m2 CLR
06:31 2.5 °F 1.6 °F 1017.5 in Calm     94 % 0.0 in 0.0 W/m2 CLR
06:36 2.6 °F 1.7 °F 1017.5 in Calm     94 % 0.0 in 0.0 W/m2 CLR
06:41 2.5 °F 1.6 °F 1017.2 in Calm     94 % 0.0 in 0.0 W/m2 CLR
06:46 2.4 °F 1.5 °F 1017.2 in Calm     94 % 0.0 in 0.0 W/m2 CLR
06:51 2.4 °F 1.6 °F 1017.2 in Calm     94 % 0.0 in 0.0 W/m2 CLR
06:56 2.6 °F 1.7 °F 1016.8 in Calm     94 % 0.0 in 0.0 W/m2 CLR
07:01 2.7 °F 1.8 °F 1016.5 in Calm     94 % 0.0 in 0.0 W/m2 CLR
07:06 2.9 °F 2.1 °F 1016.1 in SE 5.6 mph 5.6 mph 94 % 0.0 in 0.0 W/m2 CLR
07:11 3.2 °F 2.3 °F 1016.8 in East 1.9 mph 1.9 mph 94 % 0.0 in 0.0 W/m2 CLR
07:16 3.4 °F 2.5 °F 1017.2 in Calm     94 % 0.0 in 0.0 W/m2 CLR
07:21 3.4 °F 2.6 °F 1016.8 in Calm     94 % 0.0 in 0.0 W/m2 CLR
07:26 3.4 °F 2.6 °F 1017.2 in Calm     94 % 0.0 in 0.0 W/m2 CLR
07:31 3.6 °F 2.7 °F 1017.5 in NNW 5.6 mph 5.6 mph 94 % 0.0 in 0.0 W/m2 CLR
07:36 3.6 °F 2.7 °F 1017.5 in WSW 3.2 mph   94 % 0.0 in 0.0 W/m2 CLR
07:41 3.4 °F 2.5 °F 1017.5 in WSW 9.3 mph 9.3 mph 94 % 0.0 in 0.0 W/m2 CLR
07:46 3.4 °F 2.6 °F 1017.2 in SW 6.4 mph 6.4 mph 94 % 0.0 in 0.0 W/m2 CLR
07:51 3.6 °F 2.7 °F 1016.8 in Calm     94 % 0.0 in 0.0 W/m2 CLR
07:56 3.7 °F 2.8 °F 1016.5 in Calm     94 % 0.0 in 0.0 W/m2 CLR
08:01 3.7 °F 2.8 °F 1016.5 in Calm     94 % 0.0 in 0.0 W/m2 OVC
08:06 3.7 °F 2.8 °F 1016.5 in Calm     94 % 0.0 in 0.0 W/m2 OVC
08:11 3.8 °F 2.9 °F 1016.1 in Calm   1.3 mph 94 % 0.0 in 0.0 W/m2 OVC
08:16 3.9 °F 3.1 °F 1016.1 in Calm     94 % 0.0 in 0.0 W/m2 OVC
08:19 4.1 °F 3.2 °F 1016.1 in Calm     94 % 0.0 in 0.0 W/m2 OVC
08:24 4.1 °F 3.2 °F 1016.1 in Calm     94 % 0.0 in 0.0 W/m2 OVC
08:29 4.3 °F 3.4 °F 1016.5 in Calm     94 % 0.0 in 0.0 W/m2 OVC
08:34 4.6 °F 3.7 °F 1016.5 in Calm     94 % 0.0 in 9.0 W/m2 BKN
08:39 4.7 °F 3.8 °F 1016.5 in Calm     94 % 0.0 in 14.0 W/m2 BKN
08:44 4.7 °F 3.7 °F 1016.8 in Calm     93 % 0.0 in 18.0 W/m2 BKN
08:49 4.7 °F 3.6 °F 1016.8 in Calm     93 % 0.0 in 26.0 W/m2 BKN
08:54 4.6 °F 3.6 °F 1016.8 in Calm     93 % 0.0 in 23.0 W/m2 BKN
08:59 4.6 °F 3.4 °F 1016.8 in Calm     92 % 0.0 in 28.0 W/m2 BKN
09:04 4.5 °F 3.4 °F 1016.8 in Calm     93 % 0.0 in 28.0 W/m2 BKN
09:09 4.6 °F 3.5 °F 1017.2 in Calm     93 % 0.0 in 26.0 W/m2 BKN
09:14 4.6 °F 3.4 °F 1016.8 in Calm     92 % 0.0 in 30.0 W/m2 BKN
09:19 4.6 °F 3.4 °F 1016.8 in Calm     92 % 0.0 in 30.0 W/m2 BKN
09:24 4.4 °F 3.3 °F 1017.2 in Calm     92 % 0.0 in 32.0 W/m2 BKN
09:29 4.4 °F 3.2 °F 1017.2 in Calm     92 % 0.0 in 42.0 W/m2 BKN
09:34 4.4 °F 3.3 °F 1016.8 in Calm     93 % 0.0 in 60.0 W/m2 BKN
09:39 4.6 °F 3.5 °F 1016.8 in Calm     93 % 0.0 in 65.0 W/m2 SCT
09:44 4.7 °F 3.7 °F 1016.8 in Calm     93 % 0.0 in 120.0 W/m2 FEW
09:49 5.0 °F 3.9 °F 1016.8 in Calm     93 % 0.0 in 146.0 W/m2 CLR
09:54 5.2 °F 4.2 °F 1016.5 in Calm     93 % 0.0 in 163.0 W/m2 CLR
09:59 5.7 °F 4.6 °F 1016.5 in Calm     93 % 0.0 in 211.0 W/m2 CLR
10:04 6.2 °F 5.1 °F 1016.1 in Calm     93 % 0.0 in 234.0 W/m2 CLR
10:09 6.5 °F 5.4 °F 1015.8 in Calm     93 % 0.0 in 185.0 W/m2 CLR
10:14 6.6 °F 5.4 °F 1015.8 in Calm     92 % 0.0 in 265.0 W/m2 CLR
10:19 6.8 °F 5.4 °F 1015.5 in Calm     91 % 0.0 in 283.0 W/m2 CLR
10:24 7.1 °F 5.7 °F 1015.8 in Calm     91 % 0.0 in 327.0 W/m2 CLR
10:29 7.4 °F 6.1 °F 1015.5 in Calm     91 % 0.0 in 348.0 W/m2 CLR
10:34 8.1 °F 6.4 °F 1015.8 in Calm     89 % 0.0 in 387.0 W/m2 CLR
10:39 8.8 °F 6.8 °F 1015.8 in Calm     87 % 0.0 in 367.0 W/m2 CLR
10:44 9.6 °F 7.3 °F 1015.5 in Calm     86 % 0.0 in 360.0 W/m2 CLR
10:49 10.1 °F 7.7 °F 1015.8 in Calm     85 % 0.0 in 373.0 W/m2 CLR
10:54 10.5 °F 7.4 °F 1015.5 in Calm     81 % 0.0 in 387.0 W/m2 CLR
10:59 11.0 °F 6.9 °F 1015.1 in South 5.6 mph 5.6 mph 76 % 0.0 in 388.0 W/m2 CLR
11:04 11.6 °F 6.7 °F 1015.1 in South 11.1 mph 11.1 mph 72 % 0.0 in 424.0 W/m2 CLR
11:09 12.3 °F 7.4 °F 1015.1 in South 7.4 mph 7.4 mph 72 % 0.0 in 494.0 W/m2 CLR
11:14 12.8 °F 6.6 °F 1015.1 in South 9.3 mph 9.3 mph 66 % 0.0 in 563.0 W/m2 CLR
11:19 13.3 °F 7.9 °F 1015.1 in SSE 7.4 mph 7.4 mph 70 % 0.0 in 534.0 W/m2 CLR
11:24 13.4 °F 7.7 °F 1015.1 in SSE 7.4 mph 7.4 mph 68 % 0.0 in 332.0 W/m2 CLR
11:29 13.5 °F 6.6 °F 1015.1 in SSE 14.8 mph 14.8 mph 63 % 0.0 in 190.0 W/m2 CLR
11:34 13.6 °F 6.4 °F 1014.8 in SSE 5.6 mph 5.6 mph 62 % 0.0 in 156.0 W/m2 CLR
11:39 13.5 °F 6.3 °F 1014.8 in South 6.4 mph 6.4 mph 62 % 0.0 in 134.0 W/m2 CLR
11:44 13.4 °F 6.7 °F 1014.4 in South 9.3 mph 9.3 mph 64 % 0.0 in 142.0 W/m2 CLR
11:49 13.4 °F 6.7 °F 1014.4 in SSW 5.6 mph 5.6 mph 64 % 0.0 in 142.0 W/m2 CLR
11:54 13.4 °F 6.5 °F 1014.4 in SSW 7.4 mph 7.4 mph 63 % 0.0 in 155.0 W/m2 CLR
11:59 13.4 °F 6.6 °F 1014.8 in SW 5.6 mph 5.6 mph 63 % 0.0 in 211.0 W/m2 CLR
12:04 13.5 °F 7.3 °F 1014.4 in Calm     66 % 0.0 in 264.0 W/m2 CLR
12:09 13.6 °F 7.6 °F 1014.4 in Calm     67 % 0.0 in 181.0 W/m2 CLR
12:14 13.7 °F 7.4 °F 1014.4 in NW 7.4 mph 7.4 mph 66 % 0.0 in 153.0 W/m2 CLR
12:15 13.7 °F 7.0 °F 1014.4 in NW 7.4 mph 7.4 mph 64 % 0.0 in 153.0 W/m2 CLR
12:20 13.8 °F 7.1 °F 1014.4 in WNW 9.7 mph 9.7 mph 64 % 0.0 in 193.0 W/m2 CLR
12:25 14.3 °F 7.4 °F 1014.4 in WNW 9.3 mph 9.3 mph 63 % 0.0 in 513.0 W/m2 CLR
12:30 15.1 °F 7.1 °F 1014.1 in WNW 18.5 mph 18.5 mph 59 % 0.0 in 540.0 W/m2 CLR
12:35 15.6 °F 7.6 °F 1014.1 in WNW 11.1 mph 11.1 mph 59 % 0.0 in 531.0 W/m2 CLR
12:40 16.0 °F 6.7 °F 1014.1 in West 16.7 mph 16.7 mph 54 % 0.0 in 485.0 W/m2 CLR
12:45 16.2 °F 6.6 °F 1014.4 in WNW 25.9 mph 25.9 mph 53 % 0.0 in 541.0 W/m2 CLR
12:50 16.4 °F 7.8 °F 1014.1 in WNW 22.2 mph 22.2 mph 57 % 0.0 in 554.0 W/m2 CLR
12:55 16.6 °F 7.5 °F 1014.1 in WNW 25.9 mph 25.9 mph 55 % 0.0 in 693.0 W/m2 CLR
13:00 16.7 °F 6.8 °F 1014.1 in West 31.5 mph 31.5 mph 52 % 0.0 in 714.0 W/m2 CLR
13:05 16.8 °F 6.6 °F 1014.1 in West 25.9 mph 25.9 mph 51 % 0.0 in 359.0 W/m2 CLR
13:10 16.7 °F 7.6 °F 1014.1 in WNW 14.8 mph 14.8 mph 55 % 0.0 in 285.0 W/m2 CLR
13:15 16.4 °F 6.8 °F 1014.1 in NW 13.0 mph 13.0 mph 53 % 0.0 in 137.0 W/m2 CLR
13:20 16.2 °F 7.4 °F 1014.1 in NW 11.1 mph 11.1 mph 56 % 0.0 in 139.0 W/m2 CLR
13:25 16.1 °F 7.8 °F 1013.8 in Calm     58 % 0.0 in 149.0 W/m2 CLR
13:30 16.1 °F 7.3 °F 1013.8 in WNW 5.6 mph   56 % 0.0 in 251.0 W/m2 CLR
13:35 16.2 °F 6.8 °F 1013.8 in West 9.3 mph 9.3 mph 54 % 0.0 in 250.0 W/m2 CLR
13:40 16.2 °F 7.4 °F 1013.8 in West 11.3 mph 11.3 mph 56 % 0.0 in 169.0 W/m2 CLR
13:45 16.2 °F 7.4 °F 1013.8 in WNW 14.8 mph 14.8 mph 56 % 0.0 in 234.0 W/m2 CLR
13:50 16.5 °F 7.9 °F 1013.8 in NW 14.8 mph 14.8 mph 57 % 0.0 in 345.0 W/m2 CLR
13:55 17.1 °F 7.4 °F 1013.8 in WNW 22.5 mph 22.5 mph 53 % 0.0 in 262.0 W/m2 CLR
14:00 17.4 °F 6.6 °F 1013.8 in West 38.9 mph 38.9 mph 49 % 0.0 in 682.0 W/m2 CLR
14:05 17.5 °F 6.9 °F 1013.4 in WNW 46.3 mph 46.3 mph 50 % 0.0 in 243.0 W/m2 CLR
14:10 16.9 °F 7.8 °F 1013.8 in NW 42.6 mph 42.6 mph 55 % 0.0 in 512.0 W/m2 CLR
14:15 15.8 °F 7.6 °F 1013.8 in NNW 25.7 mph 25.7 mph 58 % 0.0 in 227.0 W/m2 CLR
14:20 15.1 °F 7.4 °F 1014.1 in North 29.6 mph 29.6 mph 60 % 0.0 in 149.0 W/m2 CLR
14:25 14.6 °F 7.8 °F 1014.1 in North 20.4 mph 20.4 mph 64 % 0.0 in 113.0 W/m2 CLR
14:30 14.1 °F 7.4 °F 1014.1 in North 25.9 mph 25.9 mph 64 % 0.0 in 149.0 W/m2 CLR
14:35 13.7 °F 7.5 °F 1014.4 in North 29.6 mph 29.6 mph 66 % 0.0 in 162.0 W/m2 CLR
14:40 13.4 °F 7.7 °F 1014.4 in North 24.1 mph 24.1 mph 68 % 0.0 in 239.0 W/m2 CLR
14:45 13.2 °F 8.0 °F 1014.4 in North 18.5 mph 18.5 mph 71 % 0.0 in 160.0 W/m2 CLR
14:50 13.0 °F 7.9 °F 1014.4 in North 20.4 mph 20.4 mph 71 % 0.0 in 156.0 W/m2 CLR
14:55 12.9 °F 7.9 °F 1014.4 in North 22.2 mph 22.2 mph 72 % 0.0 in 216.0 W/m2 CLR
15:00 12.8 °F 8.1 °F 1014.4 in North 16.7 mph 16.7 mph 73 % 0.0 in 153.0 W/m2 CLR
15:05 12.8 °F 7.8 °F 1014.4 in North 14.8 mph 14.8 mph 72 % 0.0 in 169.0 W/m2 CLR
15:10 12.8 °F 7.9 °F 1014.4 in North 18.5 mph 18.5 mph 72 % 0.0 in 167.0 W/m2 CLR
15:15 13.0 °F 7.9 °F 1014.4 in North 18.5 mph 18.5 mph 71 % 0.0 in 561.0 W/m2 CLR
15:20 13.3 °F 8.3 °F 1014.4 in North 18.5 mph 18.5 mph 72 % 0.0 in 197.0 W/m2 CLR
15:25 13.4 °F 8.3 °F 1014.4 in North 3.7 mph 3.7 mph 71 % 0.0 in 510.0 W/m2 CLR
15:30 13.6 °F 8.0 °F 1014.4 in North 14.8 mph 14.8 mph 69 % 0.0 in 436.0 W/m2 CLR
15:35 13.6 °F 8.2 °F 1014.8 in NNE 5.6 mph 5.6 mph 70 % 0.0 in 464.0 W/m2 CLR
15:40 13.8 °F 8.4 °F 1014.8 in North 8.0 mph 8.0 mph 70 % 0.0 in 490.0 W/m2 CLR
15:45 14.1 °F 8.9 °F 1014.8 in Calm     71 % 0.0 in 390.0 W/m2 CLR
15:50 14.3 °F 8.3 °F 1014.8 in NNW 11.1 mph 11.1 mph 67 % 0.0 in 381.0 W/m2 CLR
15:55 14.1 °F 8.3 °F 1014.8 in North 5.6 mph 5.6 mph 68 % 0.0 in 174.0 W/m2 CLR
16:00 13.9 °F 8.5 °F 1014.8 in North 3.7 mph 3.7 mph 70 % 0.0 in 123.0 W/m2 CLR
16:05 13.8 °F 8.2 °F 1014.8 in Calm     69 % 0.0 in 109.0 W/m2 CLR
16:10 13.7 °F 8.1 °F 1014.8 in Calm     69 % 0.0 in 109.0 W/m2 CLR
16:15 13.6 °F 8.0 °F 1014.8 in Calm     69 % 0.0 in 116.0 W/m2 CLR
16:20 13.6 °F 8.0 °F 1014.8 in Calm     69 % 0.0 in 102.0 W/m2 CLR
16:25 13.6 °F 8.0 °F 1014.8 in Calm     69 % 0.0 in 91.0 W/m2 CLR
16:30 13.5 °F 7.9 °F 1014.4 in Calm     69 % 0.0 in 86.0 W/m2 CLR
16:35 13.6 °F 8.2 °F 1014.8 in Calm     70 % 0.0 in 83.0 W/m2 CLR
16:40 13.5 °F 8.6 °F 1015.1 in Calm     72 % 0.0 in 76.0 W/m2 FEW
16:45 13.5 °F 8.6 °F 1015.1 in Calm     72 % 0.0 in 62.0 W/m2 FEW
16:50 13.4 °F 8.4 °F 1015.1 in Calm     72 % 0.0 in 56.0 W/m2 FEW
16:55 13.3 °F 8.2 °F 1015.1 in Calm     71 % 0.0 in 53.0 W/m2 SCT
17:00 13.2 °F 7.9 °F 1015.1 in Calm     70 % 0.0 in 62.0 W/m2 SCT
17:05 13.1 °F 8.1 °F 1015.5 in Calm     72 % 0.0 in 58.0 W/m2 SCT
17:10 12.9 °F 7.9 °F 1015.1 in Calm     72 % 0.0 in 37.0 W/m2 SCT
17:15 12.7 °F 7.8 °F 1015.1 in Calm     72 % 0.0 in 40.0 W/m2 BKN
17:20 12.7 °F 7.9 °F 1015.1 in Calm     73 % 0.0 in 40.0 W/m2 BKN
17:26 12.7 °F 8.2 °F 1015.1 in Calm     74 % 0.0 in 35.0 W/m2 BKN
17:31 12.6 °F 8.1 °F 1015.1 in Calm     74 % 0.0 in 28.0 W/m2 BKN
17:36 12.6 °F 8.2 °F 1015.1 in Calm     75 % 0.0 in 25.0 W/m2 BKN
17:41 12.4 °F 7.9 °F 1015.1 in Calm     74 % 0.0 in 18.0 W/m2 BKN
17:43 12.4 °F 7.9 °F 1015.1 in Calm     74 % 0.0 in 14.0 W/m2 BKN
17:48 12.3 °F 7.8 °F 1015.1 in Calm     74 % 0.0 in 14.0 W/m2 BKN
17:53 12.3 °F 7.8 °F 1015.5 in Calm     74 % 0.0 in 11.0 W/m2 BKN
17:58 12.2 °F 7.7 °F 1015.5 in Calm     74 % 0.0 in 9.0 W/m2 BKN
18:03 12.1 °F 8.0 °F 1015.5 in Calm     76 % 0.0 in 5.0 W/m2 OVC
18:08 12.0 °F 7.9 °F 1015.5 in Calm     76 % 0.0 in 0.0 W/m2 OVC
18:13 11.9 °F 8.0 °F 1015.5 in Calm     77 % 0.0 in 0.0 W/m2 OVC
18:18 11.8 °F 7.9 °F 1015.5 in Calm     77 % 0.0 in 0.0 W/m2 OVC
18:23 11.7 °F 7.8 °F 1015.5 in Calm     77 % 0.0 in 0.0 W/m2 OVC
18:28 11.6 °F 7.9 °F 1015.5 in Calm     78 % 0.0 in 0.0 W/m2 OVC
18:33 11.6 °F 7.8 °F 1015.8 in Calm     78 % 0.0 in 0.0 W/m2 CLR
18:38 11.6 °F 7.8 °F 1015.8 in Calm     78 % 0.0 in 0.0 W/m2 CLR
18:43 11.5 °F 7.8 °F 1015.8 in Calm     78 % 0.0 in 0.0 W/m2 CLR
18:48 11.5 °F 7.8 °F 1015.8 in Calm     78 % 0.0 in 0.0 W/m2 CLR
18:53 11.4 °F 7.9 °F 1016.1 in Calm     79 % 0.0 in 0.0 W/m2 CLR
18:58 11.2 °F 7.9 °F 1016.1 in Calm     80 % 0.0 in 0.0 W/m2 CLR
19:03 11.1 °F 7.9 °F 1016.1 in Calm     81 % 0.0 in 0.0 W/m2 CLR
19:08 10.9 °F 7.9 °F 1016.1 in Calm     82 % 0.0 in 0.0 W/m2 CLR
19:13 10.8 °F 7.9 °F 1016.1 in Calm     82 % 0.0 in 0.0 W/m2 CLR
19:18 10.8 °F 8.0 °F 1016.1 in Calm     83 % 0.0 in 0.0 W/m2 CLR
19:23 10.7 °F 7.9 °F 1016.5 in Calm     83 % 0.0 in 0.0 W/m2 CLR
19:28 10.7 °F 7.9 °F 1016.5 in Calm     83 % 0.0 in 0.0 W/m2 CLR
19:33 10.8 °F 8.0 °F 1016.1 in Calm     83 % 0.0 in 0.0 W/m2 CLR
19:38 10.6 °F 7.9 °F 1016.1 in Calm     84 % 0.0 in 0.0 W/m2 CLR
19:43 10.3 °F 7.9 °F 1016.1 in Calm     85 % 0.0 in 0.0 W/m2 CLR
19:48 10.2 °F 8.0 °F 1016.1 in Calm     86 % 0.0 in 0.0 W/m2 CLR
19:53 10.1 °F 7.9 °F 1016.5 in WSW 7.4 mph 7.4 mph 86 % 0.0 in 0.0 W/m2 CLR
19:58 10.1 °F 7.9 °F 1016.5 in Calm     86 % 0.0 in 0.0 W/m2 CLR
20:03 10.2 °F 8.0 °F 1016.5 in Calm     86 % 0.0 in 0.0 W/m2 CLR
20:08 10.1 °F 7.9 °F 1016.5 in Calm     86 % 0.0 in 0.0 W/m2 CLR
20:13 10.1 °F 7.8 °F 1016.5 in Calm     86 % 0.0 in 0.0 W/m2 CLR
20:18 10.0 °F 7.6 °F 1016.5 in Calm     85 % 0.0 in 0.0 W/m2 CLR
20:23 10.0 °F 7.6 °F 1016.5 in Calm     85 % 0.0 in 0.0 W/m2 CLR
20:28 10.3 °F 7.4 °F 1016.5 in Calm     82 % 0.0 in 0.0 W/m2 CLR
20:33 10.5 °F 7.7 °F 1016.1 in Calm     83 % 0.0 in 0.0 W/m2 CLR
20:38 10.3 °F 7.6 °F 1016.1 in Calm     83 % 0.0 in 0.0 W/m2 CLR
20:43 10.3 °F 7.3 °F 1016.1 in Calm     82 % 0.0 in 0.0 W/m2 CLR
20:48 10.2 °F 7.2 °F 1016.1 in Calm     82 % 0.0 in 0.0 W/m2 CLR
20:53 10.1 °F 7.2 °F 1016.5 in Calm     82 % 0.0 in 0.0 W/m2 CLR
20:58 10.1 °F 6.9 °F 1016.5 in Calm     81 % 0.0 in 0.0 W/m2 CLR
21:03 10.3 °F 7.1 °F 1016.1 in Calm     80 % 0.0 in 0.0 W/m2 CLR
21:08 10.6 °F 6.9 °F 1016.1 in WSW 1.9 mph   78 % 0.0 in 0.0 W/m2 CLR
21:13 10.9 °F 6.8 °F 1016.1 in West 5.6 mph 5.6 mph 76 % 0.0 in 0.0 W/m2 CLR
21:18 11.1 °F 6.8 °F 1016.1 in West 5.6 mph 5.6 mph 75 % 0.0 in 0.0 W/m2 CLR
21:23 11.3 °F 7.2 °F 1016.1 in Calm     76 % 0.0 in 0.0 W/m2 CLR
21:28 11.1 °F 6.8 °F 1016.1 in Calm     75 % 0.0 in 0.0 W/m2 CLR
21:33 10.8 °F 6.7 °F 1016.1 in West 3.7 mph   76 % 0.0 in 0.0 W/m2 CLR
21:38 10.6 °F 6.7 °F 1016.1 in Calm     77 % 0.0 in 0.0 W/m2 CLR
21:43 10.4 °F 6.6 °F 1016.1 in Calm     77 % 0.0 in 0.0 W/m2 CLR
21:48 10.2 °F 6.6 °F 1016.1 in Calm     78 % 0.0 in 0.0 W/m2 CLR
21:53 10.1 °F 6.6 °F 1015.8 in Calm     79 % 0.0 in 0.0 W/m2 CLR
21:58 9.9 °F 6.4 °F 1015.8 in Calm     79 % 0.0 in 0.0 W/m2 CLR
22:04 9.9 °F 6.4 °F 1015.8 in Calm     79 % 0.0 in 0.0 W/m2 CLR
22:08 9.8 °F 6.5 °F 1015.8 in Calm     80 % 0.0 in 0.0 W/m2 CLR
22:14 9.6 °F 6.3 °F 1015.5 in Calm     80 % 0.0 in 0.0 W/m2 CLR
22:19 9.6 °F 6.4 °F 1015.8 in Calm     81 % 0.0 in 0.0 W/m2 CLR
22:24 9.4 °F 6.3 °F 1015.8 in Calm     81 % 0.0 in 0.0 W/m2 CLR
22:29 9.3 °F 6.2 °F 1015.8 in Calm     81 % 0.0 in 0.0 W/m2 CLR
22:34 9.2 °F 6.3 °F 1015.5 in Calm     82 % 0.0 in 0.0 W/m2 CLR
22:39 9.1 °F 6.2 °F 1015.5 in Calm     82 % 0.0 in 0.0 W/m2 CLR
22:44 9.0 °F 6.3 °F 1015.5 in Calm     83 % 0.0 in 0.0 W/m2 CLR
22:49 8.9 °F 6.2 °F 1015.5 in Calm     83 % 0.0 in 0.0 W/m2 CLR
22:54 9.2 °F 6.1 °F 1015.1 in SW 1.9 mph 1.9 mph 81 % 0.0 in 0.0 W/m2 CLR
22:59 9.4 °F 6.1 °F 1015.5 in WSW 3.7 mph   80 % 0.0 in 0.0 W/m2 CLR
23:04 9.6 °F 6.1 °F 1015.1 in Calm     79 % 0.0 in 0.0 W/m2 CLR
23:09 9.5 °F 6.1 °F 1015.1 in Calm     79 % 0.0 in 0.0 W/m2 CLR
23:14 9.2 °F 5.9 °F 1015.1 in Calm     80 % 0.0 in 0.0 W/m2 CLR
23:19 8.9 °F 5.8 °F 1015.1 in Calm     81 % 0.0 in 0.0 W/m2 CLR
23:24 8.6 °F 5.7 °F 1014.8 in Calm     82 % 0.0 in 0.0 W/m2 CLR
23:29 8.4 °F 5.7 °F 1014.8 in West 4.8 mph 4.8 mph 83 % 0.0 in 0.0 W/m2 CLR
23:34 8.6 °F 5.9 °F 1014.4 in WSW 7.4 mph 7.4 mph 83 % 0.0 in 0.0 W/m2 CLR
23:39 8.9 °F 6.0 °F 1014.4 in Calm     82 % 0.0 in 0.0 W/m2 CLR
23:44 8.7 °F 5.8 °F 1014.4 in Calm     82 % 0.0 in 0.0 W/m2 CLR
23:49 8.7 °F 5.8 °F 1014.8 in Calm     82 % 0.0 in 0.0 W/m2 CLR
23:54 8.6 °F 5.9 °F 1014.4 in Calm     83 % 0.0 in 0.0 W/m2 CLR
23:59 8.4 °F 5.7 °F 1014.4 in Calm     83 % 0.0 in 0.0 W/m2 CLR
Lo Temps de Massalio
Compliments of Weather Underground - 1.25 mb